Time;durP1;ratioP1;P1;durP2;ratioP2;P2;SDS_P1;SDS_P2;PMS_P1;PMS_P2;Temp;Humidity;BMP_temperature;BMP_pressure;BME280_temperature;BME280_humidity;BME280_pressure;Samples;Min_cycle;Max_cycle;Signal;HPM_P1;HPM_P2
2023/08/20 00:00:50;;;;;;;;;;;;;;;;;;5053917;28;19909;-63
2023/08/20 00:03:16;;;;;;;;;;;;;;;;;;5056450;28;19912;-63
2023/08/20 00:05:42;;;;;;;;;;;;;;;;;;5054663;28;19916;-63
2023/08/20 00:08:08;;;;;;;;;;;;;;;;;;5064295;28;19928;-63
2023/08/20 00:10:34;;;;;;;;;;;;;;;;;;5073432;28;19959;-63
2023/08/20 00:13:00;;;;;;;;;;;;;;;;;;5065012;28;19952;-63
2023/08/20 00:15:28;;;;;;;;;;;;;;;;;;5068361;28;19919;-62
2023/08/20 00:17:55;;;;;;;;;;;;;;;;;;5067774;28;19913;-62
2023/08/20 00:20:21;;;;;;;;;;;;;;;;;;5070992;28;19931;-62
2023/08/20 00:22:47;;;;;;;;;;;;;;;;;;5070874;28;19921;-62
2023/08/20 00:25:13;;;;;;;;;;;;;;;;;;5071719;28;20399;-62
2023/08/20 00:27:39;;;;;;;;;;;;;;;;;;5061738;28;19916;-63
2023/08/20 00:30:05;;;;;;;;;;;;;;;;;;5070903;28;20420;-62
2023/08/20 00:32:31;;;;;;;;;;;;;;;;;;5054676;28;19920;-62
2023/08/20 00:34:57;;;;;;;;;;;;;;;;;;5067528;28;19912;-62
2023/08/20 00:37:23;;;;;;;;;;;;;;;;;;5072746;28;19912;-62
2023/08/20 00:39:49;;;;;;;;;;;;;;;;;;5073019;28;20003;-62
2023/08/20 00:42:14;;;;;;;;;;;;;;;;;;5073186;28;20397;-63
2023/08/20 00:44:46;;;;;;;;;;;;;;;;;;5071629;28;19966;-63
2023/08/20 00:47:12;;;;;;;;;;;;;;;;;;5069918;28;19920;-62
2023/08/20 00:49:38;;;;;;;;;;;;;;;;;;5071573;28;19960;-63
2023/08/20 00:52:04;;;;;;;;;;;;;;;;;;5072491;28;20327;-65
2023/08/20 00:54:30;;;;;;;;;;;;;;;;;;5066795;28;19919;-63
2023/08/20 00:56:56;;;;;;;;;;;;;;;;;;5064186;28;19913;-63
2023/08/20 00:59:22;;;;;;;;;;;;;;;;;;5072814;28;19958;-62
2023/08/20 01:01:48;;;;;;;;;;;;;;;;;;5068442;28;20471;-62
2023/08/20 01:04:14;;;;;;;;;;;;;;;;;;5056549;28;19917;-66
2023/08/20 01:06:40;;;;;;;;;;;;;;;;;;5063084;28;19959;-62
2023/08/20 01:09:06;;;;;;;;;;;;;;;;;;5068278;28;20279;-72
2023/08/20 01:11:32;;;;;;;;;;;;;;;;;;5071871;28;20007;-63
2023/08/20 01:13:58;;;;;;;;;;;;;;;;;;5071018;28;20011;-64
2023/08/20 01:16:24;;;;;;;;;;;;;;;;;;5069300;28;19912;-63
2023/08/20 01:18:51;;;;;;;;;;;;;;;;;;5060034;28;19978;-65
2023/08/20 01:21:17;;;;;;;;;;;;;;;;;;5070208;28;19924;-63
2023/08/20 01:23:42;;;;;;;;;;;;;;;;;;5072294;28;19912;-64
2023/08/20 01:26:08;;;;;;;;;;;;;;;;;;5055531;28;19999;-64
2023/08/20 01:28:34;;;;;;;;;;;;;;;;;;5054966;28;20276;-63
2023/08/20 01:31:00;;;;;;;;;;;;;;;;;;5066886;28;20010;-63
2023/08/20 01:33:26;;;;;;;;;;;;;;;;;;5053114;28;19913;-63
2023/08/20 01:35:52;;;;;;;;;;;;;;;;;;5058655;28;19919;-63
2023/08/20 01:38:18;;;;;;;;;;;;;;;;;;5063454;28;19975;-63
2023/08/20 01:40:44;;;;;;;;;;;;;;;;;;5070514;28;19955;-63
2023/08/20 01:43:10;;;;;;;;;;;;;;;;;;5072491;28;19962;-64
2023/08/20 01:45:36;;;;;;;;;;;;;;;;;;5072217;28;19958;-63
2023/08/20 01:48:03;;;;;;;;;;;;;;;;;;5059599;28;19944;-64
2023/08/20 01:50:29;;;;;;;;;;;;;;;;;;5052022;28;19971;-64
2023/08/20 01:52:55;;;;;;;;;;;;;;;;;;5070869;28;20479;-63
2023/08/20 01:55:21;;;;;;;;;;;;;;;;;;5072378;28;20007;-63
2023/08/20 01:57:47;;;;;;;;;;;;;;;;;;5071563;28;19919;-63
2023/08/20 02:00:13;;;;;;;;;;;;;;;;;;5062973;28;19960;-63
2023/08/20 02:02:39;;;;;;;;;;;;;;;;;;5057096;28;19948;-64
2023/08/20 02:05:04;;;;;;;;;;;;;;;;;;5068919;28;20003;-63
2023/08/20 02:07:30;;;;;;;;;;;;;;;;;;5069892;28;19912;-63
2023/08/20 02:09:56;;;;;;;;;;;;;;;;;;5072165;28;19916;-64
2023/08/20 02:12:22;;;;;;;;;;;;;;;;;;5076381;28;19916;-64
2023/08/20 02:14:49;;;;;;;;;;;;;;;;;;5071532;28;19952;-64
2023/08/20 02:17:15;;;;;;;;;;;;;;;;;;5071186;28;20451;-63
2023/08/20 02:19:40;;;;;;;;;;;;;;;;;;5065282;28;20020;-70
2023/08/20 02:22:06;;;;;;;;;;;;;;;;;;5072795;28;19922;-73
2023/08/20 02:24:32;;;;;;;;;;;;;;;;;;5075613;28;20011;-72
2023/08/20 02:26:58;;;;;;;;;;;;;;;;;;5076037;28;19919;-72
2023/08/20 02:29:24;;;;;;;;;;;;;;;;;;5062896;28;19921;-72
2023/08/20 02:31:50;;;;;;;;;;;;;;;;;;5067383;28;20385;-70
2023/08/20 02:34:16;;;;;;;;;;;;;;;;;;5075798;28;19908;-72
2023/08/20 02:36:42;;;;;;;;;;;;;;;;;;5068693;28;19916;-70
2023/08/20 02:39:08;;;;;;;;;;;;;;;;;;5074330;28;19916;-73
2023/08/20 02:41:35;;;;;;;;;;;;;;;;;;5066587;28;19958;-72
2023/08/20 02:44:01;;;;;;;;;;;;;;;;;;5055519;28;19917;-72
2023/08/20 02:46:27;;;;;;;;;;;;;;;;;;5055195;28;20001;-72
2023/08/20 02:48:53;;;;;;;;;;;;;;;;;;5057751;28;19966;-73
2023/08/20 02:51:19;;;;;;;;;;;;;;;;;;5062564;28;19986;-73
2023/08/20 02:53:45;;;;;;;;;;;;;;;;;;5068058;28;20013;-73
2023/08/20 02:56:11;;;;;;;;;;;;;;;;;;5070264;28;19913;-72
2023/08/20 02:58:37;;;;;;;;;;;;;;;;;;5062402;28;19913;-74
2023/08/20 03:01:03;;;;;;;;;;;;;;;;;;5074886;28;19908;-73
2023/08/20 03:03:28;;;;;;;;;;;;;;;;;;5062237;28;19917;-73
2023/08/20 03:05:54;;;;;;;;;;;;;;;;;;5065447;28;19920;-73
2023/08/20 03:08:20;;;;;;;;;;;;;;;;;;5071844;28;19917;-72
2023/08/20 03:10:46;;;;;;;;;;;;;;;;;;5063131;28;19952;-73
2023/08/20 03:13:12;;;;;;;;;;;;;;;;;;5074581;28;19913;-73
2023/08/20 03:15:38;;;;;;;;;;;;;;;;;;5074427;28;19916;-71
2023/08/20 03:18:04;;;;;;;;;;;;;;;;;;5062809;28;19968;-73
2023/08/20 03:20:33;;;;;;;;;;;;;;;;;;5053141;28;19921;-73
2023/08/20 03:22:59;;;;;;;;;;;;;;;;;;5058446;28;20050;-73
2023/08/20 03:25:25;;;;;;;;;;;;;;;;;;5054090;28;20015;-73
2023/08/20 03:27:50;;;;;;;;;;;;;;;;;;5072748;28;19920;-68
2023/08/20 03:30:16;;;;;;;;;;;;;;;;;;5074051;28;20284;-68
2023/08/20 03:32:42;;;;;;;;;;;;;;;;;;5072875;28;20005;-68
2023/08/20 03:35:08;;;;;;;;;;;;;;;;;;5072590;28;20042;-67
2023/08/20 03:37:34;;;;;;;;;;;;;;;;;;5073523;28;20372;-68
2023/08/20 03:40:00;;;;;;;;;;;;;;;;;;5074108;28;19909;-68
2023/08/20 03:42:26;;;;;;;;;;;;;;;;;;5073586;28;19999;-68
2023/08/20 03:44:52;;;;;;;;;;;;;;;;;;5067844;28;20307;-68
2023/08/20 03:47:20;;;;;;;;;;;;;;;;;;5068098;28;19919;-68
2023/08/20 03:49:47;;;;;;;;;;;;;;;;;;5072000;28;19912;-68
2023/08/20 03:52:13;;;;;;;;;;;;;;;;;;5066971;28;19912;-68
2023/08/20 03:54:39;;;;;;;;;;;;;;;;;;5074344;28;20387;-68
2023/08/20 03:57:05;;;;;;;;;;;;;;;;;;5070686;28;19978;-68
2023/08/20 03:59:31;;;;;;;;;;;;;;;;;;5074143;28;20367;-68
2023/08/20 04:01:57;;;;;;;;;;;;;;;;;;5054134;28;19998;-68
2023/08/20 04:04:23;;;;;;;;;;;;;;;;;;5063377;28;19920;-68
2023/08/20 04:06:49;;;;;;;;;;;;;;;;;;5061121;28;19927;-68
2023/08/20 04:09:16;;;;;;;;;;;;;;;;;;5064692;28;20276;-68
2023/08/20 04:11:42;;;;;;;;;;;;;;;;;;5064682;28;19916;-68
2023/08/20 04:14:08;;;;;;;;;;;;;;;;;;5069032;28;19948;-68
2023/08/20 04:16:34;;;;;;;;;;;;;;;;;;5072971;28;20307;-68
2023/08/20 04:19:00;;;;;;;;;;;;;;;;;;5065266;28;20011;-68
2023/08/20 04:21:26;;;;;;;;;;;;;;;;;;5067364;28;19912;-67
2023/08/20 04:23:51;;;;;;;;;;;;;;;;;;5072712;28;20269;-68
2023/08/20 04:26:18;;;;;;;;;;;;;;;;;;5072099;28;19993;-68
2023/08/20 04:28:43;;;;;;;;;;;;;;;;;;5072403;28;19919;-68
2023/08/20 04:31:09;;;;;;;;;;;;;;;;;;5069265;28;19963;-67
2023/08/20 04:33:35;;;;;;;;;;;;;;;;;;5062801;28;20357;-67
2023/08/20 04:36:01;;;;;;;;;;;;;;;;;;5067853;28;19957;-68
2023/08/20 04:38:27;;;;;;;;;;;;;;;;;;5072282;28;20003;-68
2023/08/20 04:40:53;;;;;;;;;;;;;;;;;;5071517;28;20291;-67
2023/08/20 04:43:19;;;;;;;;;;;;;;;;;;5072056;28;20003;-68
2023/08/20 04:45:45;;;;;;;;;;;;;;;;;;5071878;28;19916;-67
2023/08/20 04:48:11;;;;;;;;;;;;;;;;;;5067477;28;20384;-67
2023/08/20 04:50:37;;;;;;;;;;;;;;;;;;5057535;28;19952;-67
2023/08/20 04:53:03;;;;;;;;;;;;;;;;;;5069275;28;19916;-68
2023/08/20 04:55:28;;;;;;;;;;;;;;;;;;5069425;28;19924;-67
2023/08/20 04:57:54;;;;;;;;;;;;;;;;;;5067127;28;20460;-68
2023/08/20 05:00:20;;;;;;;;;;;;;;;;;;5070055;28;19927;-68
2023/08/20 05:02:46;;;;;;;;;;;;;;;;;;5069492;28;19912;-68
2023/08/20 05:05:12;;;;;;;;;;;;;;;;;;5056151;28;20392;-68
2023/08/20 05:07:38;;;;;;;;;;;;;;;;;;5071522;28;19919;-68
2023/08/20 05:10:04;;;;;;;;;;;;;;;;;;5071172;28;20036;-67
2023/08/20 05:12:30;;;;;;;;;;;;;;;;;;5071021;28;20000;-69
2023/08/20 05:14:56;;;;;;;;;;;;;;;;;;5070998;28;19995;-67
2023/08/20 05:17:21;;;;;;;;;;;;;;;;;;5060138;28;19923;-68
2023/08/20 05:19:47;;;;;;;;;;;;;;;;;;5068972;28;19916;-68
2023/08/20 05:22:13;;;;;;;;;;;;;;;;;;5061432;28;19935;-68
2023/08/20 05:24:39;;;;;;;;;;;;;;;;;;5066516;28;19927;-68
2023/08/20 05:27:05;;;;;;;;;;;;;;;;;;5071619;28;19963;-68
2023/08/20 05:29:31;;;;;;;;;;;;;;;;;;5071231;28;19952;-69
2023/08/20 05:31:57;;;;;;;;;;;;;;;;;;5055263;28;20784;-69
2023/08/20 05:34:23;;;;;;;;;;;;;;;;;;5059261;28;20003;-69
2023/08/20 05:36:49;;;;;;;;;;;;;;;;;;5057793;28;19935;-69
2023/08/20 05:39:14;;;;;;;;;;;;;;;;;;5071351;28;19916;-68
2023/08/20 05:41:40;;;;;;;;;;;;;;;;;;5071118;28;19947;-69
2023/08/20 05:44:06;;;;;;;;;;;;;;;;;;5069363;28;20431;-67
2023/08/20 05:46:32;;;;;;;;;;;;;;;;;;5070822;28;19912;-68
2023/08/20 05:48:58;;;;;;;;;;;;;;;;;;5071816;28;19909;-70
2023/08/20 05:51:24;;;;;;;;;;;;;;;;;;5059788;28;19938;-69
2023/08/20 05:53:50;;;;;;;;;;;;;;;;;;5063189;28;19913;-68
2023/08/20 05:56:16;;;;;;;;;;;;;;;;;;5063261;28;20392;-69
2023/08/20 05:58:42;;;;;;;;;;;;;;;;;;5079120;28;19909;-68
2023/08/20 06:01:08;;;;;;;;;;;;;;;;;;5066452;28;19998;-69
2023/08/20 06:03:34;;;;;;;;;;;;;;;;;;5066617;28;19912;-68
2023/08/20 06:06:00;;;;;;;;;;;;;;;;;;5069781;28;20271;-70
2023/08/20 06:08:25;;;;;;;;;;;;;;;;;;5068798;28;19958;-68
2023/08/20 06:10:52;;;;;;;;;;;;;;;;;;5066572;28;20444;-68
2023/08/20 06:13:18;;;;;;;;;;;;;;;;;;5067451;28;19938;-69
2023/08/20 06:15:44;;;;;;;;;;;;;;;;;;5070749;28;20304;-68
2023/08/20 06:18:10;;;;;;;;;;;;;;;;;;5060434;28;19909;-68
2023/08/20 06:20:35;;;;;;;;;;;;;;;;;;5068975;28;19916;-69
2023/08/20 06:23:01;;;;;;;;;;;;;;;;;;5067889;28;20371;-69
2023/08/20 06:25:27;;;;;;;;;;;;;;;;;;5065039;28;19924;-69
2023/08/20 06:27:53;;;;;;;;;;;;;;;;;;5060696;28;20310;-69
2023/08/20 06:30:19;;;;;;;;;;;;;;;;;;5066786;28;20033;-69
2023/08/20 06:32:45;;;;;;;;;;;;;;;;;;5070601;28;19920;-69
2023/08/20 06:35:11;;;;;;;;;;;;;;;;;;5065687;28;19916;-70
2023/08/20 06:37:37;;;;;;;;;;;;;;;;;;5070793;28;19916;-69
2023/08/20 06:40:02;;;;;;;;;;;;;;;;;;5069547;28;20655;-70
2023/08/20 06:42:28;;;;;;;;;;;;;;;;;;5067206;28;19944;-70
2023/08/20 06:44:54;;;;;;;;;;;;;;;;;;5060575;28;19920;-69
2023/08/20 06:47:20;;;;;;;;;;;;;;;;;;5058355;28;20436;-68
2023/08/20 06:49:46;;;;;;;;;;;;;;;;;;5059761;28;19977;-69
2023/08/20 06:52:12;;;;;;;;;;;;;;;;;;5065604;28;19959;-69
2023/08/20 06:54:38;;;;;;;;;;;;;;;;;;5067853;28;20372;-69
2023/08/20 06:57:04;;;;;;;;;;;;;;;;;;5069554;28;20003;-69
2023/08/20 06:59:30;;;;;;;;;;;;;;;;;;5074474;28;19919;-72
2023/08/20 07:01:56;;;;;;;;;;;;;;;;;;5067256;28;19917;-72
2023/08/20 07:04:21;;;;;;;;;;;;;;;;;;5069133;28;19916;-73
2023/08/20 07:06:47;;;;;;;;;;;;;;;;;;5072748;28;20327;-71
2023/08/20 07:09:13;;;;;;;;;;;;;;;;;;5067723;28;19983;-72
2023/08/20 07:11:39;;;;;;;;;;;;;;;;;;5071910;28;19920;-72
2023/08/20 07:14:05;;;;;;;;;;;;;;;;;;5073023;28;20003;-72
2023/08/20 07:16:31;;;;;;;;;;;;;;;;;;5072544;28;19955;-74
2023/08/20 07:18:57;;;;;;;;;;;;;;;;;;5070109;28;19912;-71
2023/08/20 07:21:23;;;;;;;;;;;;;;;;;;5065765;28;19948;-72
2023/08/20 07:23:49;;;;;;;;;;;;;;;;;;5063663;28;20008;-72
2023/08/20 07:26:15;;;;;;;;;;;;;;;;;;5069284;28;19944;-73
2023/08/20 07:28:56;;;;;;;;;;;;;;;;;;5073360;28;19998;-73
2023/08/20 07:31:22;;;;;;;;;;;;;;;;;;5071801;28;20028;-73
2023/08/20 07:33:48;;;;;;;;;;;;;;;;;;5065224;28;20003;-72
2023/08/20 07:36:14;;;;;;;;;;;;;;;;;;5071960;28;19969;-72
2023/08/20 07:38:42;;;;;;;;;;;;;;;;;;5063801;28;20320;-72
2023/08/20 07:41:08;;;;;;;;;;;;;;;;;;5061136;28;20051;-73
2023/08/20 07:43:34;;;;;;;;;;;;;;;;;;5069572;28;20373;-73
2023/08/20 07:46:00;;;;;;;;;;;;;;;;;;5072002;28;19916;-72
2023/08/20 07:48:26;;;;;;;;;;;;;;;;;;5070194;28;19923;-70
2023/08/20 07:50:51;;;;;;;;;;;;;;;;;;5071740;28;20018;-72
2023/08/20 07:53:17;;;;;;;;;;;;;;;;;;5062624;28;19912;-72
2023/08/20 07:55:43;;;;;;;;;;;;;;;;;;5070841;28;19919;-69
2023/08/20 07:58:09;;;;;;;;;;;;;;;;;;5071963;28;19916;-73
2023/08/20 08:00:36;;;;;;;;;;;;;;;;;;5065202;28;19920;-72
2023/08/20 08:03:01;;;;;;;;;;;;;;;;;;5070308;28;20368;-71
2023/08/20 08:05:27;;;;;;;;;;;;;;;;;;5062844;28;20025;-72
2023/08/20 08:07:53;;;;;;;;;;;;;;;;;;5064876;28;20027;-72
2023/08/20 08:10:19;;;;;;;;;;;;;;;;;;5059933;28;20429;-72
2023/08/20 08:12:45;;;;;;;;;;;;;;;;;;5060786;28;19965;-71
2023/08/20 08:15:12;;;;;;;;;;;;;;;;;;5072960;28;19923;-72
2023/08/20 08:17:37;;;;;;;;;;;;;;;;;;5068402;28;19961;-73
2023/08/20 08:20:03;;;;;;;;;;;;;;;;;;5063173;28;19975;-73
2023/08/20 08:22:29;;;;;;;;;;;;;;;;;;5068802;28;19922;-72
2023/08/20 08:24:55;;;;;;;;;;;;;;;;;;5063415;28;19974;-72
2023/08/20 08:27:21;;;;;;;;;;;;;;;;;;5071767;28;20297;-70
2023/08/20 08:29:47;;;;;;;;;;;;;;;;;;5070546;28;20472;-69
2023/08/20 08:32:13;;;;;;;;;;;;;;;;;;5059635;28;19964;-70
2023/08/20 08:34:39;;;;;;;;;;;;;;;;;;5057155;28;19920;-69
2023/08/20 08:37:05;;;;;;;;;;;;;;;;;;5069646;28;19913;-69
2023/08/20 08:39:31;;;;;;;;;;;;;;;;;;5071254;28;19916;-69
2023/08/20 08:41:57;;;;;;;;;;;;;;;;;;5065464;28;19961;-70
2023/08/20 08:44:23;;;;;;;;;;;;;;;;;;5063834;28;20019;-70
2023/08/20 08:46:50;;;;;;;;;;;;;;;;;;5063254;28;20353;-70
2023/08/20 08:49:16;;;;;;;;;;;;;;;;;;5070225;28;19995;-71
2023/08/20 08:51:41;;;;;;;;;;;;;;;;;;5059839;28;19919;-70
2023/08/20 08:54:08;;;;;;;;;;;;;;;;;;5066057;28;19916;-71
2023/08/20 08:56:34;;;;;;;;;;;;;;;;;;5066287;28;20244;-69
2023/08/20 08:59:00;;;;;;;;;;;;;;;;;;5057699;28;19952;-70
2023/08/20 09:01:26;;;;;;;;;;;;;;;;;;5063737;28;19952;-70
2023/08/20 09:03:51;;;;;;;;;;;;;;;;;;5069033;28;20006;-69
2023/08/20 09:06:17;;;;;;;;;;;;;;;;;;5063118;28;19985;-66
2023/08/20 09:08:43;;;;;;;;;;;;;;;;;;5064997;28;19955;-67
2023/08/20 09:11:09;;;;;;;;;;;;;;;;;;5062641;28;19917;-65
2023/08/20 09:13:35;;;;;;;;;;;;;;;;;;5063963;28;19919;-73
2023/08/20 09:16:01;;;;;;;;;;;;;;;;;;5056420;28;20389;-72
2023/08/20 09:18:27;;;;;;;;;;;;;;;;;;5057527;28;20361;-72
2023/08/20 09:20:53;;;;;;;;;;;;;;;;;;5069104;28;19923;-72
2023/08/20 09:23:19;;;;;;;;;;;;;;;;;;5070638;28;19920;-71
2023/08/20 09:25:45;;;;;;;;;;;;;;;;;;5062584;28;20328;-71
2023/08/20 09:28:11;;;;;;;;;;;;;;;;;;5066930;28;19916;-72
2023/08/20 09:30:39;;;;;;;;;;;;;;;;;;5070924;28;20034;-71
2023/08/20 09:33:05;;;;;;;;;;;;;;;;;;5065332;28;20360;-71
2023/08/20 09:35:30;;;;;;;;;;;;;;;;;;5065652;28;19958;-71
2023/08/20 09:37:56;;;;;;;;;;;;;;;;;;5065675;28;20001;-72
2023/08/20 09:40:22;;;;;;;;;;;;;;;;;;5070642;28;19995;-70
2023/08/20 09:42:48;;;;;;;;;;;;;;;;;;5056667;28;20343;-69
2023/08/20 09:45:14;;;;;;;;;;;;;;;;;;5061465;28;19931;-71
2023/08/20 09:47:40;;;;;;;;;;;;;;;;;;5060487;28;19959;-70
2023/08/20 09:50:06;;;;;;;;;;;;;;;;;;5059880;28;20455;-70
2023/08/20 09:52:32;;;;;;;;;;;;;;;;;;5054759;28;19953;-66
2023/08/20 09:54:58;;;;;;;;;;;;;;;;;;5056522;28;20416;-70
2023/08/20 09:57:23;;;;;;;;;;;;;;;;;;5060491;28;19992;-71
2023/08/20 09:59:49;;;;;;;;;;;;;;;;;;5065153;28;19920;-69
2023/08/20 10:02:15;;;;;;;;;;;;;;;;;;5068284;28;20011;-70
2023/08/20 10:04:41;;;;;;;;;;;;;;;;;;5066642;28;19967;-70
2023/08/20 10:07:07;;;;;;;;;;;;;;;;;;5069412;28;19948;-70
2023/08/20 10:09:33;;;;;;;;;;;;;;;;;;5064879;28;20347;-70
2023/08/20 10:12:01;;;;;;;;;;;;;;;;;;5060578;28;19967;-66
2023/08/20 10:14:27;;;;;;;;;;;;;;;;;;5064937;28;20360;-69
2023/08/20 10:16:52;;;;;;;;;;;;;;;;;;5062165;28;19913;-67
2023/08/20 10:19:18;;;;;;;;;;;;;;;;;;5067581;28;19978;-70
2023/08/20 10:21:45;;;;;;;;;;;;;;;;;;5064556;28;19978;-70
2023/08/20 10:24:11;;;;;;;;;;;;;;;;;;5053675;28;19925;-69
2023/08/20 10:26:37;;;;;;;;;;;;;;;;;;5063145;28;19923;-69
2023/08/20 10:29:03;;;;;;;;;;;;;;;;;;5065216;28;19963;-69
2023/08/20 10:31:29;;;;;;;;;;;;;;;;;;5065706;28;19961;-70
2023/08/20 10:33:55;;;;;;;;;;;;;;;;;;5074655;28;19919;-70
2023/08/20 10:36:30;;;;;;;;;;;;;;;;;;5066815;28;19920;-69
2023/08/20 10:38:57;;;;;;;;;;;;;;;;;;5062440;28;20399;-70
2023/08/20 10:41:23;;;;;;;;;;;;;;;;;;5066538;28;19912;-70
2023/08/20 10:43:49;;;;;;;;;;;;;;;;;;5068986;28;20409;-71
2023/08/20 10:46:15;;;;;;;;;;;;;;;;;;5059684;28;19920;-70
2023/08/20 10:48:41;;;;;;;;;;;;;;;;;;5063950;28;19920;-69
2023/08/20 10:51:07;;;;;;;;;;;;;;;;;;5069345;28;20078;-68
2023/08/20 10:53:33;;;;;;;;;;;;;;;;;;5066763;28;20371;-70
2023/08/20 10:55:59;;;;;;;;;;;;;;;;;;5059867;28;20394;-69
2023/08/20 10:58:25;;;;;;;;;;;;;;;;;;5072605;28;19955;-69
2023/08/20 11:00:51;;;;;;;;;;;;;;;;;;5067078;28;19965;-67
2023/08/20 11:03:17;;;;;;;;;;;;;;;;;;5070289;28;19913;-69
2023/08/20 11:05:43;;;;;;;;;;;;;;;;;;5071700;28;19959;-69
2023/08/20 11:08:09;;;;;;;;;;;;;;;;;;5073216;28;20368;-67
2023/08/20 11:10:34;;;;;;;;;;;;;;;;;;5071129;28;19944;-68
2023/08/20 11:13:03;;;;;;;;;;;;;;;;;;5067968;28;19995;-67
2023/08/20 11:15:29;;;;;;;;;;;;;;;;;;5069369;28;21028;-68
2023/08/20 11:17:55;;;;;;;;;;;;;;;;;;5070096;28;19956;-68
2023/08/20 11:20:20;;;;;;;;;;;;;;;;;;5069529;28;19955;-68
2023/08/20 11:22:46;;;;;;;;;;;;;;;;;;5059424;28;20365;-69
2023/08/20 11:25:15;;;;;;;;;;;;;;;;;;5059850;28;19964;-69
2023/08/20 11:27:41;;;;;;;;;;;;;;;;;;5061360;28;19999;-65
2023/08/20 11:30:07;;;;;;;;;;;;;;;;;;5058776;28;19919;-68
2023/08/20 11:32:33;;;;;;;;;;;;;;;;;;5063933;28;19912;-68
2023/08/20 11:34:59;;;;;;;;;;;;;;;;;;5068108;28;20435;-69
2023/08/20 11:37:25;;;;;;;;;;;;;;;;;;5063342;28;19912;-67
2023/08/20 11:39:51;;;;;;;;;;;;;;;;;;5071214;28;19923;-67
2023/08/20 11:42:17;;;;;;;;;;;;;;;;;;5059269;28;19918;-65
2023/08/20 11:44:43;;;;;;;;;;;;;;;;;;5069972;28;19964;-69
2023/08/20 11:47:09;;;;;;;;;;;;;;;;;;5062681;28;19955;-69
2023/08/20 11:49:37;;;;;;;;;;;;;;;;;;5061446;28;19963;-69
2023/08/20 11:52:03;;;;;;;;;;;;;;;;;;5072564;28;19908;-70
2023/08/20 11:54:29;;;;;;;;;;;;;;;;;;5069009;28;19974;-68
2023/08/20 11:56:55;;;;;;;;;;;;;;;;;;5069300;28;19951;-69
2023/08/20 11:59:21;;;;;;;;;;;;;;;;;;5058674;28;19916;-70
2023/08/20 12:01:47;;;;;;;;;;;;;;;;;;5070815;28;19922;-69
2023/08/20 12:04:13;;;;;;;;;;;;;;;;;;5068781;28;20332;-66
2023/08/20 12:06:39;;;;;;;;;;;;;;;;;;5070198;28;20007;-67
2023/08/20 12:09:05;;;;;;;;;;;;;;;;;;5058951;28;19981;-66
2023/08/20 12:11:31;;;;;;;;;;;;;;;;;;5069488;28;20344;-67
2023/08/20 12:13:57;;;;;;;;;;;;;;;;;;5065745;28;19966;-66
2023/08/20 12:16:23;;;;;;;;;;;;;;;;;;5067056;28;19948;-69
2023/08/20 12:18:49;;;;;;;;;;;;;;;;;;5060847;28;19928;-71
2023/08/20 12:21:15;;;;;;;;;;;;;;;;;;5059240;28;19956;-66
2023/08/20 12:23:41;;;;;;;;;;;;;;;;;;5065024;28;19919;-66
2023/08/20 12:26:07;;;;;;;;;;;;;;;;;;5072238;28;20007;-68
2023/08/20 12:28:33;;;;;;;;;;;;;;;;;;5066664;28;19945;-66
2023/08/20 12:30:59;;;;;;;;;;;;;;;;;;5069987;28;20610;-66
2023/08/20 12:33:25;;;;;;;;;;;;;;;;;;5068058;28;19946;-69
2023/08/20 12:35:51;;;;;;;;;;;;;;;;;;5059003;28;19917;-69
2023/08/20 12:38:17;;;;;;;;;;;;;;;;;;5064175;28;19947;-66
2023/08/20 12:40:43;;;;;;;;;;;;;;;;;;5058649;28;19971;-68
2023/08/20 12:43:09;;;;;;;;;;;;;;;;;;5061346;28;20380;-67
2023/08/20 12:45:35;;;;;;;;;;;;;;;;;;5060417;28;19924;-68
2023/08/20 12:48:00;;;;;;;;;;;;;;;;;;5061389;28;20358;-65
2023/08/20 12:50:26;;;;;;;;;;;;;;;;;;5056238;28;20539;-67
2023/08/20 12:52:52;;;;;;;;;;;;;;;;;;5064786;28;19947;-68
2023/08/20 12:55:18;;;;;;;;;;;;;;;;;;5059974;28;20526;-68
2023/08/20 12:57:44;;;;;;;;;;;;;;;;;;5065569;28;19920;-68
2023/08/20 13:00:11;;;;;;;;;;;;;;;;;;5058710;28;20010;-68
2023/08/20 13:02:37;;;;;;;;;;;;;;;;;;5063240;28;19927;-70
2023/08/20 13:05:04;;;;;;;;;;;;;;;;;;5065546;28;19963;-69
2023/08/20 13:07:30;;;;;;;;;;;;;;;;;;5061406;28;20291;-69
2023/08/20 13:09:56;;;;;;;;;;;;;;;;;;5054352;28;19967;-68
2023/08/20 13:12:22;;;;;;;;;;;;;;;;;;5065072;28;19954;-69
2023/08/20 13:14:48;;;;;;;;;;;;;;;;;;5066342;28;19913;-69
2023/08/20 13:17:14;;;;;;;;;;;;;;;;;;5061473;28;19912;-70
2023/08/20 13:19:40;;;;;;;;;;;;;;;;;;5059366;28;19974;-68
2023/08/20 13:22:06;;;;;;;;;;;;;;;;;;5059120;28;20435;-71
2023/08/20 13:24:32;;;;;;;;;;;;;;;;;;5060786;28;19945;-69
2023/08/20 13:26:57;;;;;;;;;;;;;;;;;;5066900;28;19958;-68
2023/08/20 13:29:23;;;;;;;;;;;;;;;;;;5064839;28;19960;-69
2023/08/20 13:31:49;;;;;;;;;;;;;;;;;;5058793;28;19921;-71
2023/08/20 13:34:15;;;;;;;;;;;;;;;;;;5070337;28;19912;-69
2023/08/20 13:36:42;;;;;;;;;;;;;;;;;;5064263;28;19912;-71
2023/08/20 13:39:08;;;;;;;;;;;;;;;;;;5062952;28;19956;-69
2023/08/20 13:41:33;;;;;;;;;;;;;;;;;;5067950;28;19954;-68
2023/08/20 13:43:59;;;;;;;;;;;;;;;;;;5068547;28;19925;-69
2023/08/20 13:46:25;;;;;;;;;;;;;;;;;;5065793;28;20444;-69
2023/08/20 13:48:51;;;;;;;;;;;;;;;;;;5055641;28;20399;-70
2023/08/20 13:51:17;;;;;;;;;;;;;;;;;;5070669;28;19909;-70
2023/08/20 13:53:43;;;;;;;;;;;;;;;;;;5059170;28;20017;-69
2023/08/20 13:56:09;;;;;;;;;;;;;;;;;;5074212;28;20394;-67
2023/08/20 13:58:35;;;;;;;;;;;;;;;;;;5065583;28;19913;-63
2023/08/20 14:01:01;;;;;;;;;;;;;;;;;;5065404;28;19943;-62
2023/08/20 14:03:26;;;;;;;;;;;;;;;;;;5069687;28;19923;-63
2023/08/20 14:05:53;;;;;;;;;;;;;;;;;;5064757;28;19923;-62
2023/08/20 14:08:19;;;;;;;;;;;;;;;;;;5069882;28;20442;-63
2023/08/20 14:10:45;;;;;;;;;;;;;;;;;;5071222;28;19999;-63
2023/08/20 14:13:11;;;;;;;;;;;;;;;;;;5074511;28;19949;-62
2023/08/20 14:15:37;;;;;;;;;;;;;;;;;;5069330;28;19951;-63
2023/08/20 14:18:03;;;;;;;;;;;;;;;;;;5066813;28;19956;-63
2023/08/20 14:20:28;;;;;;;;;;;;;;;;;;5073877;28;20019;-63
2023/08/20 14:22:54;;;;;;;;;;;;;;;;;;5073559;28;19917;-62
2023/08/20 14:25:20;;;;;;;;;;;;;;;;;;5067691;28;20394;-62
2023/08/20 14:27:46;;;;;;;;;;;;;;;;;;5071805;28;19916;-63
2023/08/20 14:30:12;;;;;;;;;;;;;;;;;;5069063;28;19982;-63
2023/08/20 14:32:38;;;;;;;;;;;;;;;;;;5074215;28;20279;-63
2023/08/20 14:35:04;;;;;;;;;;;;;;;;;;5067898;28;19909;-63
2023/08/20 14:37:30;;;;;;;;;;;;;;;;;;5063365;28;19978;-64
2023/08/20 14:39:56;;;;;;;;;;;;;;;;;;5069132;28;19975;-64
2023/08/20 14:42:22;;;;;;;;;;;;;;;;;;5070243;28;19951;-64
2023/08/20 14:44:48;;;;;;;;;;;;;;;;;;5073382;28;20079;-63
2023/08/20 14:47:14;;;;;;;;;;;;;;;;;;5065979;28;19912;-63
2023/08/20 14:49:40;;;;;;;;;;;;;;;;;;5061269;28;20260;-64
2023/08/20 14:52:06;;;;;;;;;;;;;;;;;;5065832;28;19944;-63
2023/08/20 14:54:32;;;;;;;;;;;;;;;;;;5070854;28;20272;-63
2023/08/20 14:56:58;;;;;;;;;;;;;;;;;;5070683;28;19915;-63
2023/08/20 14:59:25;;;;;;;;;;;;;;;;;;5070329;28;19913;-63
2023/08/20 15:01:51;;;;;;;;;;;;;;;;;;5069378;28;19959;-63
2023/08/20 15:04:17;;;;;;;;;;;;;;;;;;5068672;28;20028;-63
2023/08/20 15:06:43;;;;;;;;;;;;;;;;;;5066492;28;19919;-64
2023/08/20 15:09:14;;;;;;;;;;;;;;;;;;5065069;28;19912;-71
2023/08/20 15:11:40;;;;;;;;;;;;;;;;;;5067647;28;19931;-69
2023/08/20 15:14:06;;;;;;;;;;;;;;;;;;5062293;28;19964;-70
2023/08/20 15:16:32;;;;;;;;;;;;;;;;;;5065632;28;20381;-70
2023/08/20 15:18:58;;;;;;;;;;;;;;;;;;5071036;28;19967;-67
2023/08/20 15:21:24;;;;;;;;;;;;;;;;;;5068310;28;19920;-65
2023/08/20 15:23:50;;;;;;;;;;;;;;;;;;5066812;28;20367;-63
2023/08/20 15:26:17;;;;;;;;;;;;;;;;;;5069345;28;21669;-62
2023/08/20 15:28:43;;;;;;;;;;;;;;;;;;5066952;28;20070;-62
2023/08/20 15:31:09;;;;;;;;;;;;;;;;;;5061144;28;19912;-62
2023/08/20 15:33:35;;;;;;;;;;;;;;;;;;5073497;28;19983;-61
2023/08/20 15:36:01;;;;;;;;;;;;;;;;;;5070134;28;19908;-62
2023/08/20 15:38:27;;;;;;;;;;;;;;;;;;5057510;28;19913;-62
2023/08/20 15:40:53;;;;;;;;;;;;;;;;;;5073225;28;19913;-62
2023/08/20 15:43:19;;;;;;;;;;;;;;;;;;5069269;28;19944;-61
2023/08/20 15:45:45;;;;;;;;;;;;;;;;;;5065580;28;20011;-62
2023/08/20 15:48:11;;;;;;;;;;;;;;;;;;5059435;28;19927;-61
2023/08/20 15:50:37;;;;;;;;;;;;;;;;;;5054961;28;19920;-62
2023/08/20 15:53:03;;;;;;;;;;;;;;;;;;5057397;28;19960;-62
2023/08/20 15:55:29;;;;;;;;;;;;;;;;;;5062588;28;20011;-61
2023/08/20 15:57:55;;;;;;;;;;;;;;;;;;5070662;28;19969;-62
2023/08/20 16:00:21;;;;;;;;;;;;;;;;;;5064898;28;20005;-61
2023/08/20 16:02:47;;;;;;;;;;;;;;;;;;5069119;28;19912;-61
2023/08/20 16:05:13;;;;;;;;;;;;;;;;;;5067893;28;19924;-61
2023/08/20 16:07:39;;;;;;;;;;;;;;;;;;5068592;28;19978;-61
2023/08/20 16:10:05;;;;;;;;;;;;;;;;;;5071824;28;19916;-61
2023/08/20 16:12:31;;;;;;;;;;;;;;;;;;5065840;28;19916;-61
2023/08/20 16:14:57;;;;;;;;;;;;;;;;;;5066872;28;19960;-61
2023/08/20 16:17:23;;;;;;;;;;;;;;;;;;5067403;28;19912;-61
2023/08/20 16:19:49;;;;;;;;;;;;;;;;;;5065476;28;19968;-62
2023/08/20 16:22:15;;;;;;;;;;;;;;;;;;5061739;28;19991;-62
2023/08/20 16:24:41;;;;;;;;;;;;;;;;;;5067682;28;19924;-62
2023/08/20 16:27:07;;;;;;;;;;;;;;;;;;5064829;28;20600;-62
2023/08/20 16:29:33;;;;;;;;;;;;;;;;;;5061365;28;19951;-62
2023/08/20 16:31:59;;;;;;;;;;;;;;;;;;5062118;28;20048;-62
2023/08/20 16:34:24;;;;;;;;;;;;;;;;;;5065538;28;19951;-62
2023/08/20 16:36:50;;;;;;;;;;;;;;;;;;5063387;28;20012;-62